Terminal Aerodrome Forecast
Issued by NWS

Home | Current Version | Previous Version | Text Only | Print | Product List | Glossary On
Versions: 1 2 3 4 5 6 7 8 9 10 11 12 13 14 15 16 17 18 19 20 21 22 23 24 25 26 27 28 29 30 31 32 33 34 35 36 37 38 39
000
FTUS45 KBOU 222340
TAFAPA
TAF
KAPA 222340Z 2300/2324 20010KT P6SM VCSH SCT035 OVC090
      TEMPO 2302/2306 VRB15G25KT 3SM TSRA BKN035CB
     FM230600 25007KT P6SM SCT050 OVC080
     FM230800 22007KT P6SM SCT080 BKN120
     FM231500 25007KT P6SM SCT080 SCT120
     FM232200 06008KT P6SM VCSH BKN060 BKN120=

USA.gov is the U.S. government's official web portal to all federal, state and local government web resources and services.